createdAt,value
2023-05-19T00:00:20.296Z,9.13
2023-05-19T00:02:46.900Z,9.12
2023-05-19T00:05:15.157Z,9.06
2023-05-19T00:07:43.846Z,9.12
2023-05-19T00:10:10.630Z,9.20
2023-05-19T00:12:41.056Z,9.09
2023-05-19T00:15:07.787Z,8.98
2023-05-19T00:17:38.413Z,8.90
2023-05-19T00:20:07.461Z,8.90
2023-05-19T00:22:34.164Z,8.77
2023-05-19T00:25:00.800Z,8.78
2023-05-19T00:27:27.154Z,8.75
2023-05-19T00:29:53.486Z,8.72
2023-05-19T00:32:19.826Z,8.66
2023-05-19T00:34:48.383Z,8.60
2023-05-19T00:37:14.766Z,8.58
2023-05-19T00:39:41.145Z,8.58
2023-05-19T00:42:09.043Z,8.55
2023-05-19T00:44:37.889Z,8.56
2023-05-19T00:47:10.491Z,8.56
2023-05-19T00:49:36.867Z,8.50
2023-05-19T00:52:06.045Z,8.52
2023-05-19T00:54:33.510Z,8.54
2023-05-19T00:57:00.394Z,8.49
2023-05-19T00:59:27.084Z,8.41
2023-05-19T01:01:53.696Z,8.54
2023-05-19T01:04:21.651Z,8.49
2023-05-19T01:07:01.270Z,8.48
2023-05-19T01:09:27.664Z,8.56
2023-05-19T01:11:54.006Z,8.39
2023-05-19T01:14:20.525Z,8.42
2023-05-19T01:16:50.582Z,8.35
2023-05-19T01:19:23.064Z,8.35
2023-05-19T01:21:51.437Z,8.31
2023-05-19T01:24:30.463Z,8.45
2023-05-19T01:27:12.277Z,8.51
2023-05-19T01:29:41.590Z,8.36
2023-05-19T01:32:09.282Z,8.36
2023-05-19T01:34:39.087Z,8.42
2023-05-19T01:37:05.802Z,8.32
2023-05-19T01:39:33.219Z,8.33
2023-05-19T01:42:01.143Z,8.39
2023-05-19T01:44:27.810Z,8.39
2023-05-19T01:46:54.490Z,8.32
2023-05-19T01:49:20.915Z,8.30
2023-05-19T01:51:49.780Z,8.26
2023-05-19T01:54:16.124Z,8.26
2023-05-19T01:56:49.982Z,8.32
2023-05-19T01:59:25.626Z,8.29
2023-05-19T02:01:53.728Z,8.41
2023-05-19T02:04:39.843Z,8.37
2023-05-19T02:07:09.227Z,8.32
2023-05-19T02:09:35.568Z,8.45
2023-05-19T02:12:14.992Z,8.43
2023-05-19T02:14:54.821Z,8.37
2023-05-19T02:17:33.035Z,8.48
2023-05-19T02:19:59.522Z,8.48
2023-05-19T02:22:26.158Z,8.54
2023-05-19T02:24:57.750Z,8.60
2023-05-19T02:27:24.123Z,8.68
2023-05-19T02:29:50.460Z,8.55
2023-05-19T02:32:17.642Z,8.54
2023-05-19T02:34:47.060Z,8.62
2023-05-19T02:37:16.863Z,8.57
2023-05-19T02:39:43.596Z,8.73
2023-05-19T02:42:12.489Z,8.66
2023-05-19T02:44:38.863Z,8.71
2023-05-19T02:47:05.218Z,8.68
2023-05-19T02:49:36.101Z,8.57
2023-05-19T02:52:05.848Z,8.55
2023-05-19T02:54:33.126Z,8.77
2023-05-19T02:56:59.887Z,8.88
2023-05-19T02:59:26.254Z,8.69
2023-05-19T03:01:55.347Z,8.60
2023-05-19T03:04:22.066Z,8.63
2023-05-19T03:06:48.473Z,8.63
2023-05-19T03:09:15.335Z,8.71
2023-05-19T03:11:41.738Z,8.71
2023-05-19T03:14:11.999Z,8.81
2023-05-19T03:16:41.218Z,8.67
2023-05-19T03:19:08.410Z,8.64
2023-05-19T03:21:37.948Z,8.61
2023-05-19T03:24:04.464Z,8.59
2023-05-19T03:26:30.785Z,8.72
2023-05-19T03:28:57.206Z,8.83
2023-05-19T03:31:24.300Z,8.74
2023-05-19T03:33:50.664Z,8.64
2023-05-19T03:36:17.572Z,8.67
2023-05-19T03:38:43.940Z,8.88
2023-05-19T03:41:10.293Z,8.82
2023-05-19T03:43:36.656Z,8.69
2023-05-19T03:46:03.186Z,8.66
2023-05-19T03:48:29.892Z,8.74
2023-05-19T03:50:56.263Z,8.64
2023-05-19T03:53:22.573Z,8.81
2023-05-19T03:55:49.735Z,8.70
2023-05-19T03:58:16.322Z,8.63
2023-05-19T04:00:43.732Z,8.73
2023-05-19T04:03:10.273Z,8.64
2023-05-19T04:05:36.730Z,8.62
2023-05-19T04:08:03.123Z,8.73
2023-05-19T04:10:29.623Z,8.86
2023-05-19T04:12:56.807Z,8.83
2023-05-19T04:15:23.154Z,8.74
2023-05-19T04:17:51.717Z,8.65
2023-05-19T04:20:21.163Z,8.73
2023-05-19T04:22:47.476Z,8.64
2023-05-19T04:25:14.828Z,8.64
2023-05-19T04:27:48.701Z,8.59
2023-05-19T04:30:21.959Z,8.71
2023-05-19T04:32:50.866Z,8.76
2023-05-19T04:35:20.323Z,8.73
2023-05-19T04:37:54.261Z,8.74
2023-05-19T04:40:23.681Z,8.65
2023-05-19T04:42:52.321Z,8.72
2023-05-19T04:45:18.833Z,8.63
2023-05-19T04:47:46.926Z,8.72
2023-05-19T04:50:14.204Z,8.69
2023-05-19T04:52:42.400Z,8.73
2023-05-19T04:55:20.229Z,8.73
2023-05-19T04:57:53.552Z,8.73
2023-05-19T05:00:22.101Z,8.77
2023-05-19T05:02:49.065Z,8.77
2023-05-19T05:05:27.687Z,8.75
2023-05-19T05:07:54.140Z,8.89
2023-05-19T05:10:20.599Z,8.84
2023-05-19T05:12:47.135Z,8.81
2023-05-19T05:15:13.590Z,8.88
2023-05-19T05:17:40.090Z,8.92
2023-05-19T05:20:06.991Z,8.93
2023-05-19T05:22:33.955Z,8.77
2023-05-19T05:25:01.231Z,8.77
2023-05-19T05:27:27.783Z,8.87
2023-05-19T05:29:54.176Z,8.78
2023-05-19T05:32:20.716Z,8.74
2023-05-19T05:34:47.086Z,8.73
2023-05-19T05:37:15.244Z,8.83
2023-05-19T05:39:41.753Z,8.88
2023-05-19T05:42:11.098Z,8.89
2023-05-19T05:44:41.832Z,8.93
2023-05-19T05:47:08.547Z,8.99
2023-05-19T05:49:38.163Z,8.85
2023-05-19T05:52:06.536Z,8.81
2023-05-19T05:54:42.605Z,8.85
2023-05-19T05:57:09.300Z,8.88
2023-05-19T05:59:36.104Z,9.10
2023-05-19T06:02:02.613Z,9.09
2023-05-19T06:04:29.011Z,9.05
2023-05-19T06:07:01.006Z,9.04
2023-05-19T06:09:28.518Z,9.05
2023-05-19T06:11:54.864Z,9.06
2023-05-19T06:14:21.541Z,9.10
2023-05-19T06:16:48.257Z,9.09
2023-05-19T06:19:14.808Z,9.02
2023-05-19T06:21:45.084Z,9.06
2023-05-19T06:24:12.022Z,9.08
2023-05-19T06:26:38.515Z,9.05
2023-05-19T06:29:04.853Z,9.10
2023-05-19T06:31:31.397Z,9.28
2023-05-19T06:34:01.941Z,9.30
2023-05-19T06:36:28.364Z,9.37
2023-05-19T06:38:56.206Z,9.28
2023-05-19T06:41:22.597Z,9.46
2023-05-19T06:43:48.944Z,9.32
2023-05-19T06:46:17.632Z,9.19
2023-05-19T06:48:44.260Z,9.16
2023-05-19T06:51:10.664Z,9.14
2023-05-19T06:53:36.977Z,9.35
2023-05-19T06:56:03.455Z,9.45
2023-05-19T06:58:29.850Z,9.37
2023-05-19T07:00:56.363Z,9.50
2023-05-19T07:03:22.835Z,9.68
2023-05-19T07:05:49.326Z,9.50
2023-05-19T07:08:15.793Z,9.52
2023-05-19T07:10:46.214Z,9.53
2023-05-19T07:13:12.569Z,9.82
2023-05-19T07:15:38.897Z,9.94
2023-05-19T07:18:05.377Z,9.90
2023-05-19T07:20:31.899Z,9.87
2023-05-19T07:22:58.455Z,9.84
2023-05-19T07:25:26.083Z,9.81
2023-05-19T07:27:52.764Z,9.81
2023-05-19T07:30:19.090Z,9.92
2023-05-19T07:32:45.659Z,9.87
2023-05-19T07:35:12.033Z,9.99
2023-05-19T07:37:38.392Z,10.05
2023-05-19T07:40:05.229Z,10.10
2023-05-19T07:42:31.592Z,10.19
2023-05-19T07:44:57.938Z,10.34
2023-05-19T07:47:24.270Z,10.35
2023-05-19T07:49:51.860Z,10.58
2023-05-19T07:52:18.479Z,10.56
2023-05-19T07:54:46.929Z,10.58
2023-05-19T07:57:14.483Z,10.30
2023-05-19T07:59:41.001Z,10.26
2023-05-19T08:02:07.582Z,10.39
2023-05-19T08:04:34.052Z,10.27
2023-05-19T08:07:00.540Z,10.33
2023-05-19T08:09:26.879Z,10.33
2023-05-19T08:11:53.487Z,10.32
2023-05-19T08:14:22.313Z,10.36
2023-05-19T08:16:49.282Z,10.34
2023-05-19T08:19:15.677Z,10.46
2023-05-19T08:21:42.385Z,10.30
2023-05-19T08:24:09.083Z,10.40
2023-05-19T08:26:37.041Z,10.51
2023-05-19T08:29:04.245Z,10.55
2023-05-19T08:31:30.606Z,10.72
2023-05-19T08:33:56.965Z,10.99
2023-05-19T08:36:36.418Z,10.92
2023-05-19T08:39:03.230Z,10.95
2023-05-19T08:41:29.581Z,11.25
2023-05-19T08:43:56.066Z,11.32
2023-05-19T08:46:24.953Z,11.21
2023-05-19T08:48:54.088Z,11.22
2023-05-19T08:51:33.195Z,11.13
2023-05-19T08:54:07.889Z,11.41
2023-05-19T08:56:34.465Z,11.34
2023-05-19T08:59:01.963Z,11.38
2023-05-19T09:01:30.269Z,11.66
2023-05-19T09:03:57.441Z,11.64
2023-05-19T09:06:24.104Z,11.63
2023-05-19T09:08:50.440Z,11.69
2023-05-19T09:11:16.826Z,12.04
2023-05-19T09:13:43.676Z,11.96
2023-05-19T09:16:10.887Z,12.16
2023-05-19T09:18:38.882Z,11.91
2023-05-19T09:21:05.993Z,12.03
2023-05-19T09:23:34.013Z,11.97
2023-05-19T09:26:05.017Z,11.96
2023-05-19T09:28:33.286Z,12.13
2023-05-19T09:31:18.099Z,12.32
2023-05-19T09:33:46.010Z,12.30
2023-05-19T09:36:13.471Z,12.47
2023-05-19T09:38:40.274Z,12.47
2023-05-19T09:41:07.413Z,12.48
2023-05-19T09:43:34.446Z,12.60
2023-05-19T09:46:01.937Z,12.52
2023-05-19T09:48:28.334Z,12.57
2023-05-19T09:50:55.071Z,12.49
2023-05-19T09:53:22.219Z,12.60
2023-05-19T09:55:48.915Z,12.33
2023-05-19T09:58:16.511Z,12.29
2023-05-19T10:00:43.176Z,12.38
2023-05-19T10:03:12.467Z,12.39
2023-05-19T10:05:39.806Z,12.45
2023-05-19T10:08:07.277Z,12.48
2023-05-19T10:10:33.991Z,12.48
2023-05-19T10:13:01.236Z,12.72
2023-05-19T10:15:27.946Z,12.73
2023-05-19T10:17:55.142Z,12.48
2023-05-19T10:20:37.289Z,12.56
2023-05-19T10:23:04.133Z,12.44
2023-05-19T10:25:32.585Z,12.67
2023-05-19T10:28:04.101Z,12.69
2023-05-19T10:30:34.166Z,12.68
2023-05-19T10:33:00.970Z,12.68
2023-05-19T10:35:54.208Z,12.63
2023-05-19T10:38:29.321Z,12.72
2023-05-19T10:41:00.999Z,12.73
2023-05-19T10:43:47.594Z,12.74
2023-05-19T10:46:14.041Z,12.90
2023-05-19T10:48:48.540Z,13.03
2023-05-19T10:51:15.265Z,13.19
2023-05-19T10:53:46.120Z,13.05
2023-05-19T10:56:28.462Z,13.05
2023-05-19T10:58:54.910Z,12.94
2023-05-19T11:01:24.509Z,13.16
2023-05-19T11:03:54.564Z,12.85
2023-05-19T11:06:31.908Z,12.75
2023-05-19T11:09:00.771Z,12.92
2023-05-19T11:11:43.902Z,13.17
2023-05-19T11:14:11.491Z,13.39
2023-05-19T11:16:40.037Z,13.50
2023-05-19T11:19:06.484Z,13.36
2023-05-19T11:21:52.621Z,13.59
2023-05-19T11:24:36.148Z,13.65
2023-05-19T11:27:27.838Z,13.50
2023-05-19T11:29:55.816Z,13.60
2023-05-19T11:32:23.129Z,13.49
2023-05-19T11:34:53.124Z,13.25
2023-05-19T11:37:19.606Z,13.12
2023-05-19T11:39:46.175Z,13.13
2023-05-19T11:42:12.645Z,13.00
2023-05-19T11:44:41.042Z,13.16
2023-05-19T11:47:08.388Z,13.15
2023-05-19T11:49:34.846Z,13.36
2023-05-19T11:52:04.200Z,13.54
2023-05-19T11:54:34.869Z,13.31
2023-05-19T11:57:02.810Z,13.62
2023-05-19T11:59:33.473Z,13.58
2023-05-19T12:02:03.462Z,13.69
2023-05-19T12:04:32.834Z,13.83
2023-05-19T12:06:59.405Z,13.76
2023-05-19T12:09:28.111Z,13.65
2023-05-19T12:11:54.834Z,13.25
2023-05-19T12:14:21.268Z,13.34
2023-05-19T12:16:47.785Z,13.37
2023-05-19T12:19:14.306Z,13.54
2023-05-19T12:21:41.141Z,13.64
2023-05-19T12:24:07.712Z,13.64
2023-05-19T12:26:35.923Z,13.22
2023-05-19T12:29:02.299Z,13.15
2023-05-19T12:31:28.723Z,13.35
2023-05-19T12:33:55.734Z,13.49
2023-05-19T12:36:23.794Z,13.52
2023-05-19T12:38:55.351Z,13.45
2023-05-19T12:41:29.234Z,13.36
2023-05-19T12:43:55.615Z,13.32
2023-05-19T12:46:22.628Z,13.48
2023-05-19T12:48:49.300Z,13.87
2023-05-19T12:51:21.985Z,13.91
2023-05-19T12:53:49.853Z,13.64
2023-05-19T12:56:16.910Z,13.34
2023-05-19T12:58:43.407Z,13.09
2023-05-19T13:01:19.055Z,12.93
2023-05-19T13:03:46.021Z,13.10
2023-05-19T13:06:12.592Z,13.11
2023-05-19T13:08:40.050Z,13.05
2023-05-19T13:11:06.879Z,13.04
2023-05-19T13:13:34.261Z,13.01
2023-05-19T13:16:00.681Z,13.08
2023-05-19T13:18:27.611Z,12.91
2023-05-19T13:20:54.964Z,12.84
2023-05-19T13:23:21.524Z,12.73
2023-05-19T13:25:47.921Z,12.82
2023-05-19T13:28:25.120Z,12.83
2023-05-19T13:30:52.065Z,12.63
2023-05-19T13:33:18.613Z,12.55
2023-05-19T13:35:45.017Z,12.45
2023-05-19T13:38:11.431Z,12.67
2023-05-19T13:40:38.092Z,12.90
2023-05-19T13:43:04.658Z,12.82
2023-05-19T13:45:31.068Z,12.92
2023-05-19T13:47:57.503Z,12.40
2023-05-19T13:50:27.048Z,12.43
2023-05-19T13:52:53.891Z,12.57
2023-05-19T13:55:20.503Z,12.50
2023-05-19T13:57:46.895Z,12.58
2023-05-19T14:00:21.252Z,12.62
2023-05-19T14:02:47.609Z,12.55
2023-05-19T14:05:14.022Z,12.15
2023-05-19T14:07:40.464Z,12.16
2023-05-19T14:10:07.316Z,12.30
2023-05-19T14:12:45.041Z,12.38
2023-05-19T14:15:18.706Z,12.21
2023-05-19T14:17:45.095Z,12.34
2023-05-19T14:20:12.077Z,12.18
2023-05-19T14:22:38.402Z,12.32
2023-05-19T14:25:05.290Z,12.36
2023-05-19T14:27:31.634Z,12.42
2023-05-19T14:29:58.103Z,12.60
2023-05-19T14:32:24.517Z,12.71
2023-05-19T14:34:53.610Z,12.63
2023-05-19T14:37:21.989Z,12.65
2023-05-19T14:39:48.407Z,12.71
2023-05-19T14:42:14.824Z,12.77
2023-05-19T14:44:41.167Z,12.50
2023-05-19T14:47:07.693Z,12.43
2023-05-19T14:49:34.270Z,12.41
2023-05-19T14:52:00.841Z,12.18
2023-05-19T14:54:27.191Z,12.24
2023-05-19T14:56:53.581Z,12.13
2023-05-19T14:59:19.937Z,12.10
2023-05-19T15:01:46.347Z,12.23
2023-05-19T15:04:18.637Z,12.20
2023-05-19T15:06:46.501Z,12.16
2023-05-19T15:09:16.513Z,12.33
2023-05-19T15:11:42.884Z,12.40
2023-05-19T15:14:09.259Z,12.38
2023-05-19T15:16:35.690Z,12.37
2023-05-19T15:19:02.162Z,12.44
2023-05-19T15:21:28.560Z,12.43
2023-05-19T15:23:54.892Z,12.22
2023-05-19T15:26:21.228Z,12.41
2023-05-19T15:28:47.640Z,12.31
2023-05-19T15:31:14.054Z,12.22
2023-05-19T15:33:40.424Z,12.05
2023-05-19T15:36:06.976Z,12.21
2023-05-19T15:38:40.599Z,12.17
2023-05-19T15:41:08.025Z,12.24
2023-05-19T15:43:41.576Z,12.15
2023-05-19T15:46:08.033Z,12.20
2023-05-19T15:48:36.449Z,12.37
2023-05-19T15:51:02.895Z,12.40
2023-05-19T15:53:30.301Z,12.37
2023-05-19T15:55:59.771Z,12.28
2023-05-19T15:58:26.157Z,12.47
2023-05-19T16:00:52.639Z,12.21
2023-05-19T16:03:19.199Z,12.11
2023-05-19T16:05:48.675Z,12.12
2023-05-19T16:08:17.056Z,12.20
2023-05-19T16:10:46.491Z,12.21
2023-05-19T16:13:42.008Z,12.12
2023-05-19T16:16:08.498Z,12.16
2023-05-19T16:18:34.849Z,12.19
2023-05-19T16:21:01.264Z,12.09
2023-05-19T16:23:27.756Z,12.10
2023-05-19T16:25:54.743Z,11.88
2023-05-19T16:28:27.967Z,12.03
2023-05-19T16:30:58.435Z,12.07
2023-05-19T16:33:24.821Z,11.93
2023-05-19T16:35:52.254Z,11.71
2023-05-19T16:38:18.807Z,11.82
2023-05-19T16:40:46.172Z,11.79
2023-05-19T16:43:14.507Z,11.94
2023-05-19T16:45:40.955Z,12.02
2023-05-19T16:48:07.465Z,11.87
2023-05-19T16:50:34.234Z,11.99
2023-05-19T16:53:00.935Z,11.99
2023-05-19T16:55:27.281Z,12.04
2023-05-19T16:57:54.042Z,11.95
2023-05-19T17:00:20.502Z,12.03
2023-05-19T17:02:46.957Z,12.11
2023-05-19T17:05:13.430Z,12.02
2023-05-19T17:07:40.970Z,12.04
2023-05-19T17:10:11.634Z,12.09
2023-05-19T17:12:39.982Z,12.11
2023-05-19T17:15:06.864Z,11.98
2023-05-19T17:17:33.274Z,12.12
2023-05-19T17:20:08.779Z,12.04
2023-05-19T17:22:35.137Z,12.00
2023-05-19T17:25:01.516Z,11.98
2023-05-19T17:27:27.850Z,11.92
2023-05-19T17:29:54.183Z,11.96
2023-05-19T17:32:28.206Z,11.87
2023-05-19T17:34:58.745Z,11.83
2023-05-19T17:37:25.714Z,11.77
2023-05-19T17:39:54.128Z,11.82
2023-05-19T17:42:20.545Z,11.75
2023-05-19T17:44:46.921Z,11.89
2023-05-19T17:47:13.257Z,11.89
2023-05-19T17:49:41.364Z,11.91
2023-05-19T17:52:08.029Z,11.84
2023-05-19T17:54:34.562Z,11.81
2023-05-19T17:57:01.962Z,11.82
2023-05-19T17:59:30.172Z,11.80
2023-05-19T18:01:57.894Z,11.81
2023-05-19T18:04:24.557Z,11.73
2023-05-19T18:06:52.166Z,11.73
2023-05-19T18:09:28.530Z,11.80
2023-05-19T18:11:55.415Z,11.76
2023-05-19T18:14:28.933Z,11.69
2023-05-19T18:16:55.313Z,11.90
2023-05-19T18:19:21.870Z,11.83
2023-05-19T18:21:51.699Z,11.73
2023-05-19T18:24:31.383Z,11.78
2023-05-19T18:26:58.783Z,11.71
2023-05-19T18:29:25.126Z,11.65
2023-05-19T18:31:51.541Z,11.72
2023-05-19T18:34:17.922Z,11.72
2023-05-19T18:36:46.276Z,11.58
2023-05-19T18:39:12.668Z,11.59
2023-05-19T18:41:41.298Z,11.68
2023-05-19T18:44:08.802Z,11.71
2023-05-19T18:46:45.399Z,11.70
2023-05-19T18:49:11.923Z,11.65
2023-05-19T18:51:42.049Z,11.56
2023-05-19T18:54:08.496Z,11.58
2023-05-19T18:56:35.926Z,11.49
2023-05-19T18:59:02.333Z,11.54
2023-05-19T19:01:28.917Z,11.51
2023-05-19T19:03:55.338Z,11.51
2023-05-19T19:06:22.999Z,11.47
2023-05-19T19:08:49.518Z,11.41
2023-05-19T19:11:17.938Z,11.51
2023-05-19T19:13:44.316Z,11.61
2023-05-19T19:16:10.879Z,11.47
2023-05-19T19:18:37.283Z,11.40
2023-05-19T19:21:09.228Z,11.36
2023-05-19T19:23:35.602Z,11.33
2023-05-19T19:26:09.179Z,11.36
2023-05-19T19:28:35.543Z,11.35
2023-05-19T19:31:01.896Z,11.32
2023-05-19T19:33:28.237Z,11.31
2023-05-19T19:35:54.659Z,11.30
2023-05-19T19:38:21.148Z,11.27
2023-05-19T19:40:47.514Z,11.29
2023-05-19T19:43:13.849Z,11.28
2023-05-19T19:45:41.579Z,11.32
2023-05-19T19:48:07.971Z,11.31
2023-05-19T19:50:53.460Z,11.25
2023-05-19T19:53:19.815Z,11.24
2023-05-19T19:55:46.368Z,11.21
2023-05-19T19:58:12.852Z,11.22
2023-05-19T20:00:39.174Z,11.20
2023-05-19T20:03:06.097Z,11.19
2023-05-19T20:05:32.766Z,11.19
2023-05-19T20:07:59.214Z,11.17
2023-05-19T20:10:25.660Z,11.17
2023-05-19T20:13:02.000Z,11.24
2023-05-19T20:15:28.322Z,11.22
2023-05-19T20:17:54.701Z,11.27
2023-05-19T20:20:21.191Z,11.27
2023-05-19T20:22:51.617Z,11.20
2023-05-19T20:25:17.922Z,11.17
2023-05-19T20:27:44.257Z,11.14
2023-05-19T20:30:11.061Z,11.18
2023-05-19T20:32:38.932Z,11.12
2023-05-19T20:35:07.495Z,11.14
2023-05-19T20:37:33.868Z,11.14
2023-05-19T20:40:00.215Z,11.10
2023-05-19T20:42:26.568Z,11.14
2023-05-19T20:44:57.450Z,11.28
2023-05-19T20:47:25.007Z,11.29
2023-05-19T20:49:54.518Z,11.34
2023-05-19T20:52:20.973Z,11.34
2023-05-19T20:54:47.348Z,11.39
2023-05-19T20:57:15.008Z,11.39
2023-05-19T20:59:44.524Z,11.10
2023-05-19T21:02:17.128Z,11.25
2023-05-19T21:04:44.790Z,11.20
2023-05-19T21:07:11.337Z,11.13
2023-05-19T21:09:37.688Z,11.08
2023-05-19T21:12:04.159Z,11.07
2023-05-19T21:14:30.656Z,11.12
2023-05-19T21:16:57.066Z,11.15
2023-05-19T21:19:23.538Z,11.07
2023-05-19T21:21:50.008Z,11.07
2023-05-19T21:24:18.387Z,11.06
2023-05-19T21:26:44.825Z,11.06
2023-05-19T21:29:11.257Z,11.10
2023-05-19T21:31:41.689Z,11.15
2023-05-19T21:34:08.036Z,11.08
2023-05-19T21:36:35.135Z,11.04
2023-05-19T21:39:04.667Z,11.04
2023-05-19T21:41:32.298Z,11.09
2023-05-19T21:43:58.653Z,11.03
2023-05-19T21:46:25.020Z,11.08
2023-05-19T21:48:51.466Z,11.08
2023-05-19T21:51:17.927Z,11.03
2023-05-19T21:53:53.496Z,11.07
2023-05-19T21:56:19.845Z,11.07
2023-05-19T21:58:54.320Z,11.06
2023-05-19T22:01:22.535Z,11.05
2023-05-19T22:03:49.048Z,11.03
2023-05-19T22:06:16.110Z,10.94
2023-05-19T22:08:42.445Z,10.91
2023-05-19T22:11:09.118Z,10.99
2023-05-19T22:13:37.441Z,10.95
2023-05-19T22:16:04.672Z,11.03
2023-05-19T22:18:31.133Z,11.01
2023-05-19T22:20:57.856Z,10.97
2023-05-19T22:23:25.313Z,10.93
2023-05-19T22:25:52.719Z,10.93
2023-05-19T22:28:21.090Z,10.92
2023-05-19T22:30:47.564Z,10.97
2023-05-19T22:33:13.954Z,11.03
2023-05-19T22:35:49.694Z,11.04
2023-05-19T22:38:16.232Z,10.96
2023-05-19T22:40:42.602Z,10.93
2023-05-19T22:43:09.049Z,10.87
2023-05-19T22:45:36.445Z,10.88
2023-05-19T22:48:03.179Z,10.86
2023-05-19T22:50:29.595Z,10.85
2023-05-19T22:53:07.288Z,10.94
2023-05-19T22:55:33.910Z,10.93
2023-05-19T22:58:00.450Z,10.90
2023-05-19T23:00:27.892Z,10.94
2023-05-19T23:02:58.199Z,10.92
2023-05-19T23:05:25.749Z,10.94
2023-05-19T23:07:52.170Z,10.98
2023-05-19T23:10:18.492Z,11.01
2023-05-19T23:12:54.020Z,10.83
2023-05-19T23:15:20.455Z,10.76
2023-05-19T23:17:46.814Z,10.73
2023-05-19T23:20:13.735Z,10.76
2023-05-19T23:22:40.085Z,10.79
2023-05-19T23:25:07.740Z,10.76
2023-05-19T23:27:35.271Z,10.76
2023-05-19T23:30:01.854Z,10.73
2023-05-19T23:32:37.383Z,10.72
2023-05-19T23:35:13.650Z,10.75
2023-05-19T23:37:40.057Z,10.78
2023-05-19T23:40:06.967Z,10.74
2023-05-19T23:42:33.469Z,10.75
2023-05-19T23:44:59.836Z,10.76
2023-05-19T23:47:26.642Z,10.76
2023-05-19T23:49:52.992Z,10.87
2023-05-19T23:52:19.302Z,10.94
2023-05-19T23:54:46.713Z,10.91
2023-05-19T23:57:13.058Z,10.82
2023-05-19T23:59:39.382Z,10.85
